createdAt,value
2022-08-26T00:01:56.149Z,25.70
2022-08-26T00:04:25.756Z,25.70
2022-08-26T00:06:57.155Z,25.60
2022-08-26T00:09:25.348Z,25.60
2022-08-26T00:11:54.441Z,25.60
2022-08-26T00:14:26.040Z,25.50
2022-08-26T00:16:57.743Z,25.50
2022-08-26T00:19:25.369Z,25.50
2022-08-26T00:21:53.018Z,25.50
2022-08-26T00:24:21.777Z,25.50
2022-08-26T00:26:49.997Z,25.50
2022-08-26T00:29:21.227Z,25.40
2022-08-26T00:31:52.307Z,25.40
2022-08-26T00:34:19.838Z,25.30
2022-08-26T00:36:49.366Z,25.30
2022-08-26T00:39:20.521Z,25.20
2022-08-26T00:41:48.760Z,25.10
2022-08-26T00:44:17.827Z,25.00
2022-08-26T00:46:49.074Z,24.90
2022-08-26T00:49:23.019Z,24.90
2022-08-26T00:51:53.698Z,24.80
2022-08-26T00:54:24.357Z,24.90
2022-08-26T00:57:08.683Z,24.90
2022-08-26T00:59:47.855Z,24.90
2022-08-26T01:02:20.314Z,24.80
2022-08-26T01:04:55.778Z,24.70
2022-08-26T01:07:30.136Z,24.70
2022-08-26T01:10:03.866Z,24.70
2022-08-26T01:12:34.418Z,24.80
2022-08-26T01:15:03.215Z,24.80
2022-08-26T01:17:33.739Z,24.80
2022-08-26T01:20:12.917Z,24.80
2022-08-26T01:23:01.645Z,24.90
2022-08-26T01:25:34.304Z,24.90
2022-08-26T01:28:07.073Z,24.90
2022-08-26T01:30:36.887Z,24.90
2022-08-26T01:33:11.080Z,24.90
2022-08-26T01:35:40.585Z,24.90
2022-08-26T01:38:08.694Z,24.90
2022-08-26T01:40:38.488Z,24.80
2022-08-26T01:43:08.558Z,24.70
2022-08-26T01:45:40.414Z,24.70
2022-08-26T01:48:13.922Z,24.70
2022-08-26T01:50:45.081Z,24.70
2022-08-26T01:53:16.411Z,24.60
2022-08-26T01:55:49.143Z,24.60
2022-08-26T01:58:28.187Z,24.60
2022-08-26T02:00:56.036Z,24.60
2022-08-26T02:03:25.344Z,24.50
2022-08-26T02:06:03.914Z,24.50
2022-08-26T02:08:48.198Z,24.60
2022-08-26T02:11:18.562Z,24.50
2022-08-26T02:13:54.895Z,24.60
2022-08-26T02:16:26.564Z,24.50
2022-08-26T02:18:55.314Z,24.50
2022-08-26T02:21:25.065Z,24.50
2022-08-26T02:23:53.629Z,24.60
2022-08-26T02:26:26.933Z,24.60
2022-08-26T02:29:08.753Z,24.60
2022-08-26T02:31:36.342Z,24.50
2022-08-26T02:34:13.677Z,24.50
2022-08-26T02:36:43.283Z,24.50
2022-08-26T02:39:11.250Z,24.50
2022-08-26T02:41:44.927Z,24.50
2022-08-26T02:44:13.226Z,24.50
2022-08-26T02:46:41.861Z,24.50
2022-08-26T02:49:16.245Z,24.50
2022-08-26T02:51:44.605Z,24.50
2022-08-26T02:54:13.389Z,24.50
2022-08-26T02:56:40.976Z,24.50
2022-08-26T02:59:09.570Z,24.50
2022-08-26T03:01:37.102Z,24.50
2022-08-26T03:04:06.634Z,24.50
2022-08-26T03:06:34.294Z,24.50
2022-08-26T03:09:01.825Z,24.60
2022-08-26T03:11:33.198Z,24.50
2022-08-26T03:14:03.797Z,24.50
2022-08-26T03:16:34.237Z,24.50
2022-08-26T03:19:02.932Z,24.40
2022-08-26T03:21:31.286Z,24.40
2022-08-26T03:23:59.720Z,24.40
2022-08-26T03:26:28.749Z,24.50
2022-08-26T03:29:15.767Z,24.40
2022-08-26T03:31:44.227Z,24.40
2022-08-26T03:34:15.061Z,24.40
2022-08-26T03:36:43.661Z,24.40
2022-08-26T03:39:13.141Z,24.30
2022-08-26T03:41:41.531Z,24.20
2022-08-26T03:44:09.067Z,24.20
2022-08-26T03:46:38.484Z,24.20
2022-08-26T03:49:06.118Z,24.10
2022-08-26T03:51:35.364Z,24.10
2022-08-26T03:54:08.386Z,24.20
2022-08-26T03:56:36.778Z,24.20
2022-08-26T03:59:07.587Z,24.20
2022-08-26T04:01:36.887Z,24.20
2022-08-26T04:04:05.409Z,24.10
2022-08-26T04:06:40.018Z,24.10
2022-08-26T04:09:11.726Z,24.20
2022-08-26T04:11:41.981Z,24.10
2022-08-26T04:14:14.370Z,24.10
2022-08-26T04:16:46.204Z,24.10
2022-08-26T04:19:16.072Z,24.10
2022-08-26T04:21:45.193Z,24.10
2022-08-26T04:24:15.751Z,24.10
2022-08-26T04:26:44.003Z,24.10
2022-08-26T04:29:18.342Z,24.10
2022-08-26T04:31:48.198Z,24.10
2022-08-26T04:34:17.116Z,24.00
2022-08-26T04:36:44.891Z,24.00
2022-08-26T04:39:16.750Z,24.00
2022-08-26T04:41:48.573Z,24.00
2022-08-26T04:44:16.683Z,24.00
2022-08-26T04:46:45.322Z,24.00
2022-08-26T04:49:13.836Z,24.10
2022-08-26T04:51:41.362Z,24.10
2022-08-26T04:54:11.703Z,24.10
2022-08-26T04:56:41.957Z,24.10
2022-08-26T04:59:17.175Z,24.10
2022-08-26T05:01:48.650Z,24.20
2022-08-26T05:04:20.598Z,24.20
2022-08-26T05:06:48.925Z,24.20
2022-08-26T05:09:18.551Z,24.20
2022-08-26T05:11:51.867Z,24.30
2022-08-26T05:14:22.369Z,24.40
2022-08-26T05:16:51.029Z,24.40
2022-08-26T05:19:21.165Z,24.50
2022-08-26T05:21:49.500Z,24.60
2022-08-26T05:24:18.269Z,24.70
2022-08-26T05:26:49.533Z,24.80
2022-08-26T05:29:17.133Z,24.90
2022-08-26T05:31:44.600Z,25.00
2022-08-26T05:34:12.646Z,25.00
2022-08-26T05:36:40.224Z,25.20
2022-08-26T05:39:08.259Z,25.30
2022-08-26T05:41:41.113Z,25.40
2022-08-26T05:44:12.718Z,25.60
2022-08-26T05:46:44.827Z,25.70
2022-08-26T05:49:14.166Z,25.80
2022-08-26T05:51:45.208Z,25.90
2022-08-26T05:54:14.052Z,26.00
2022-08-26T05:56:52.244Z,26.20
2022-08-26T05:59:21.380Z,26.40
2022-08-26T06:01:54.832Z,26.60
2022-08-26T06:04:27.197Z,26.80
2022-08-26T06:06:58.612Z,27.20
2022-08-26T06:09:26.923Z,27.90
2022-08-26T06:11:54.538Z,28.70
2022-08-26T06:14:23.040Z,29.60
2022-08-26T06:16:50.530Z,30.40
2022-08-26T06:19:18.285Z,31.30
2022-08-26T06:21:54.218Z,32.00
2022-08-26T06:24:42.109Z,32.60
2022-08-26T06:27:13.487Z,33.20
2022-08-26T06:29:41.828Z,33.70
2022-08-26T06:32:09.314Z,34.30
2022-08-26T06:34:36.800Z,34.60
2022-08-26T06:37:06.439Z,35.20
2022-08-26T06:39:34.469Z,35.30
2022-08-26T06:42:03.258Z,35.60
2022-08-26T06:44:34.606Z,35.80
2022-08-26T06:47:02.112Z,36.30
2022-08-26T06:49:29.613Z,35.80
2022-08-26T06:51:59.917Z,36.40
2022-08-26T06:54:30.294Z,36.90
2022-08-26T06:56:58.481Z,37.10
2022-08-26T06:59:26.179Z,37.40
2022-08-26T07:01:54.766Z,37.90
2022-08-26T07:04:24.557Z,38.20
2022-08-26T07:06:53.748Z,38.60
2022-08-26T07:09:23.813Z,38.60
2022-08-26T07:11:52.043Z,38.60
2022-08-26T07:14:21.784Z,39.00
2022-08-26T07:16:50.347Z,39.40
2022-08-26T07:19:29.031Z,39.60
2022-08-26T07:22:02.189Z,39.10
2022-08-26T07:24:35.195Z,39.20
2022-08-26T07:27:06.304Z,39.30
2022-08-26T07:29:34.970Z,39.30
2022-08-26T07:32:04.053Z,40.10
2022-08-26T07:34:34.997Z,40.30
2022-08-26T07:37:02.413Z,40.00
2022-08-26T07:39:31.528Z,39.90
2022-08-26T07:42:07.861Z,40.00
2022-08-26T07:44:37.716Z,40.60
2022-08-26T07:47:10.228Z,41.00
2022-08-26T07:49:52.718Z,41.20
2022-08-26T07:52:25.348Z,40.80
2022-08-26T07:54:55.254Z,41.00
2022-08-26T07:57:24.327Z,40.80
2022-08-26T07:59:55.118Z,40.70
2022-08-26T08:02:23.934Z,40.30
2022-08-26T08:04:52.281Z,40.00
2022-08-26T08:07:20.184Z,40.20
2022-08-26T08:09:51.355Z,40.40
2022-08-26T08:12:19.983Z,41.10
2022-08-26T08:14:48.336Z,40.80
2022-08-26T08:17:16.443Z,41.00
2022-08-26T08:19:43.890Z,40.80
2022-08-26T08:22:17.980Z,40.10
2022-08-26T08:24:49.883Z,39.80
2022-08-26T08:27:23.651Z,39.70
2022-08-26T08:29:56.837Z,39.60
2022-08-26T08:32:24.313Z,39.30
2022-08-26T08:34:51.834Z,39.90
2022-08-26T08:37:19.483Z,40.50
2022-08-26T08:39:46.887Z,40.30
2022-08-26T08:42:31.480Z,39.80
2022-08-26T08:45:03.687Z,39.60
2022-08-26T08:47:42.962Z,40.10
2022-08-26T08:50:29.083Z,40.20
2022-08-26T08:53:04.466Z,40.20
2022-08-26T08:55:56.422Z,40.40
2022-08-26T08:59:10.430Z,40.40
2022-08-26T09:01:56.258Z,40.40
2022-08-26T09:04:42.377Z,40.60
2022-08-26T09:07:17.756Z,40.30
2022-08-26T09:09:58.551Z,39.80
2022-08-26T09:12:29.976Z,39.70
2022-08-26T09:15:06.564Z,39.50
2022-08-26T09:17:56.358Z,40.10
2022-08-26T09:20:35.640Z,40.80
2022-08-26T09:23:04.502Z,41.00
2022-08-26T09:25:32.582Z,41.00
2022-08-26T09:28:01.355Z,41.20
2022-08-26T09:30:34.829Z,41.30
2022-08-26T09:33:11.154Z,41.00
2022-08-26T09:35:41.656Z,40.30
2022-08-26T09:38:33.826Z,40.60
2022-08-26T09:41:20.441Z,40.70
2022-08-26T09:44:14.737Z,40.80
2022-08-26T09:46:54.364Z,40.80
2022-08-26T09:49:35.567Z,40.70
2022-08-26T09:52:25.997Z,40.90
2022-08-26T09:55:12.513Z,40.70
2022-08-26T09:57:54.904Z,40.60
2022-08-26T10:00:43.677Z,40.70
2022-08-26T10:03:22.576Z,40.50
2022-08-26T10:06:02.692Z,40.50
2022-08-26T10:08:52.011Z,40.50
2022-08-26T10:11:33.657Z,40.60
2022-08-26T10:14:08.084Z,40.70
2022-08-26T10:16:48.618Z,41.20
2022-08-26T10:19:21.412Z,41.10
2022-08-26T10:22:00.806Z,40.80
2022-08-26T10:24:39.645Z,41.00
2022-08-26T10:27:12.116Z,41.30
2022-08-26T10:29:44.114Z,41.20
2022-08-26T10:32:31.364Z,40.70
2022-08-26T10:34:58.925Z,39.80
2022-08-26T10:37:43.722Z,39.60
2022-08-26T10:40:25.345Z,39.10
2022-08-26T10:42:55.970Z,39.30
2022-08-26T10:45:30.135Z,39.30
2022-08-26T10:48:01.668Z,39.50
2022-08-26T10:50:33.446Z,39.10
2022-08-26T10:53:12.029Z,39.10
2022-08-26T10:55:55.925Z,38.70
2022-08-26T10:58:28.223Z,38.90
2022-08-26T11:01:26.364Z,38.70
2022-08-26T11:04:05.248Z,38.30
2022-08-26T11:06:33.092Z,37.30
2022-08-26T11:09:05.599Z,36.70
2022-08-26T11:11:42.167Z,36.00
2022-08-26T11:14:28.699Z,35.60
2022-08-26T11:16:59.002Z,35.30
2022-08-26T11:19:59.514Z,34.70
2022-08-26T11:22:33.673Z,34.30
2022-08-26T11:25:05.110Z,34.30
2022-08-26T11:27:35.504Z,34.10
2022-08-26T11:30:07.504Z,34.20
2022-08-26T11:32:35.046Z,34.40
2022-08-26T11:35:06.748Z,34.00
2022-08-26T11:37:57.259Z,33.90
2022-08-26T11:40:31.414Z,33.90
2022-08-26T11:43:07.657Z,33.70
2022-08-26T11:45:41.797Z,33.60
2022-08-26T11:48:20.969Z,33.60
2022-08-26T11:51:25.246Z,33.40
2022-08-26T11:54:10.314Z,33.20
2022-08-26T11:56:39.426Z,33.00
2022-08-26T11:59:13.063Z,33.20
2022-08-26T12:01:44.591Z,33.40
2022-08-26T12:04:22.053Z,33.50
2022-08-26T12:06:51.843Z,33.60
2022-08-26T12:09:22.691Z,33.60
2022-08-26T12:11:50.416Z,33.70
2022-08-26T12:14:22.246Z,33.80
2022-08-26T12:16:50.268Z,33.80
2022-08-26T12:19:32.684Z,33.70
2022-08-26T12:22:26.635Z,33.70
2022-08-26T12:24:58.666Z,33.70
2022-08-26T12:27:34.355Z,33.70
2022-08-26T12:30:12.316Z,33.40
2022-08-26T12:32:57.821Z,33.00
2022-08-26T12:35:26.894Z,32.80
2022-08-26T12:37:57.896Z,32.80
2022-08-26T12:40:31.507Z,32.70
2022-08-26T12:43:01.957Z,32.50
2022-08-26T12:45:29.475Z,32.60
2022-08-26T12:48:01.251Z,32.70
2022-08-26T12:50:32.593Z,32.80
2022-08-26T12:53:03.684Z,32.90
2022-08-26T12:55:40.062Z,32.90
2022-08-26T12:58:16.786Z,32.90
2022-08-26T13:00:50.373Z,32.90
2022-08-26T13:03:34.793Z,32.80
2022-08-26T13:06:23.192Z,32.90
2022-08-26T13:08:51.705Z,32.90
2022-08-26T13:11:23.619Z,33.00
2022-08-26T13:13:53.320Z,33.00
2022-08-26T13:16:22.340Z,33.10
2022-08-26T13:18:53.095Z,33.00
2022-08-26T13:21:27.018Z,32.90
2022-08-26T13:23:55.133Z,32.80
2022-08-26T13:26:25.646Z,32.70
2022-08-26T13:29:01.490Z,32.70
2022-08-26T13:31:32.573Z,32.70
2022-08-26T13:34:01.557Z,32.70
2022-08-26T13:36:29.334Z,32.70
2022-08-26T13:38:57.162Z,32.80
2022-08-26T13:41:29.238Z,32.70
2022-08-26T13:43:59.498Z,32.70
2022-08-26T13:46:28.200Z,32.60
2022-08-26T13:48:57.330Z,32.50
2022-08-26T13:51:25.919Z,32.60
2022-08-26T13:53:53.495Z,32.50
2022-08-26T13:56:21.479Z,32.40
2022-08-26T13:58:49.540Z,32.60
2022-08-26T14:01:17.836Z,32.70
2022-08-26T14:03:46.185Z,32.80
2022-08-26T14:06:13.844Z,32.60
2022-08-26T14:08:41.816Z,32.70
2022-08-26T14:11:09.828Z,32.80
2022-08-26T14:13:37.683Z,32.90
2022-08-26T14:16:10.456Z,32.90
2022-08-26T14:18:43.640Z,32.90
2022-08-26T14:21:14.353Z,33.00
2022-08-26T14:23:42.393Z,33.00
2022-08-26T14:26:11.659Z,33.10
2022-08-26T14:28:55.926Z,33.10
2022-08-26T14:31:24.490Z,33.10
2022-08-26T14:33:51.955Z,33.10
2022-08-26T14:36:28.309Z,32.80
2022-08-26T14:38:58.202Z,32.60
2022-08-26T14:41:27.066Z,32.60
2022-08-26T14:44:10.340Z,32.60
2022-08-26T14:46:41.168Z,32.60
2022-08-26T14:49:10.663Z,32.60
2022-08-26T14:51:39.697Z,32.80
2022-08-26T14:54:14.236Z,32.90
2022-08-26T14:56:51.527Z,32.80
2022-08-26T14:59:22.442Z,32.50
2022-08-26T15:01:50.168Z,32.50
2022-08-26T15:04:18.356Z,32.50
2022-08-26T15:06:46.251Z,32.50
2022-08-26T15:09:14.348Z,32.60
2022-08-26T15:11:42.012Z,32.70
2022-08-26T15:14:14.684Z,32.70
2022-08-26T15:16:48.362Z,32.50
2022-08-26T15:19:16.701Z,32.30
2022-08-26T15:21:45.628Z,32.20
2022-08-26T15:24:14.717Z,32.20
2022-08-26T15:26:42.553Z,32.10
2022-08-26T15:29:10.282Z,32.10
2022-08-26T15:31:37.936Z,32.10
2022-08-26T15:34:10.995Z,32.10
2022-08-26T15:36:42.731Z,32.00
2022-08-26T15:39:10.978Z,32.00
2022-08-26T15:41:38.440Z,32.00
2022-08-26T15:44:07.271Z,32.00
2022-08-26T15:46:35.618Z,32.00
2022-08-26T15:49:05.306Z,31.90
2022-08-26T15:51:45.668Z,31.90
2022-08-26T15:54:16.633Z,31.90
2022-08-26T15:56:44.782Z,31.80
2022-08-26T15:59:12.559Z,31.70
2022-08-26T16:01:40.166Z,31.60
2022-08-26T16:04:07.750Z,31.60
2022-08-26T16:06:37.488Z,31.50
2022-08-26T16:09:06.127Z,31.40
2022-08-26T16:11:35.919Z,31.40
2022-08-26T16:14:04.857Z,31.30
2022-08-26T16:16:32.789Z,31.30
2022-08-26T16:19:04.259Z,31.30
2022-08-26T16:21:35.138Z,31.20
2022-08-26T16:24:04.611Z,31.10
2022-08-26T16:26:34.426Z,31.10
2022-08-26T16:29:04.525Z,31.10
2022-08-26T16:31:33.240Z,31.10
2022-08-26T16:34:00.722Z,31.00
2022-08-26T16:36:28.157Z,30.90
2022-08-26T16:38:56.521Z,30.80
2022-08-26T16:41:25.701Z,30.80
2022-08-26T16:43:53.761Z,30.80
2022-08-26T16:46:25.554Z,30.80
2022-08-26T16:48:54.251Z,30.80
2022-08-26T16:51:23.485Z,30.80
2022-08-26T16:53:51.763Z,30.80
2022-08-26T16:56:22.791Z,30.70
2022-08-26T16:58:50.678Z,30.70
2022-08-26T17:01:18.392Z,30.70
2022-08-26T17:03:45.918Z,30.70
2022-08-26T17:06:13.605Z,30.70
2022-08-26T17:08:42.062Z,30.80
2022-08-26T17:11:10.438Z,30.70
2022-08-26T17:13:39.053Z,30.70
2022-08-26T17:16:08.917Z,30.70
2022-08-26T17:18:36.733Z,30.70
2022-08-26T17:21:06.777Z,30.70
2022-08-26T17:23:34.951Z,30.70
2022-08-26T17:26:03.065Z,30.60
2022-08-26T17:28:30.722Z,30.60
2022-08-26T17:30:59.307Z,30.60
2022-08-26T17:33:27.724Z,30.60
2022-08-26T17:35:56.310Z,30.60
2022-08-26T17:38:24.309Z,30.50
2022-08-26T17:40:52.200Z,30.50
2022-08-26T17:43:19.770Z,30.50
2022-08-26T17:45:47.348Z,30.40
2022-08-26T17:48:14.990Z,30.30
2022-08-26T17:50:43.619Z,30.30
2022-08-26T17:53:19.135Z,30.30
2022-08-26T17:55:48.719Z,30.20
2022-08-26T17:58:18.692Z,30.20
2022-08-26T18:00:52.291Z,30.20
2022-08-26T18:03:20.137Z,30.00
2022-08-26T18:05:49.528Z,30.00
2022-08-26T18:08:17.420Z,30.00
2022-08-26T18:10:44.943Z,29.90
2022-08-26T18:13:14.823Z,29.90
2022-08-26T18:15:45.427Z,29.80
2022-08-26T18:18:15.043Z,29.80
2022-08-26T18:20:44.039Z,29.70
2022-08-26T18:23:12.667Z,29.70
2022-08-26T18:25:44.151Z,29.60
2022-08-26T18:28:11.608Z,29.60
2022-08-26T18:30:41.419Z,29.50
2022-08-26T18:33:09.509Z,29.50
2022-08-26T18:35:42.155Z,29.40
2022-08-26T18:38:11.847Z,29.40
2022-08-26T18:40:42.125Z,29.40
2022-08-26T18:43:10.071Z,29.40
2022-08-26T18:45:37.590Z,29.30
2022-08-26T18:48:05.479Z,29.30
2022-08-26T18:50:33.070Z,29.20
2022-08-26T18:53:02.486Z,29.20
2022-08-26T18:55:30.029Z,29.20
2022-08-26T18:57:57.455Z,29.20
2022-08-26T19:00:24.901Z,29.10
2022-08-26T19:02:52.472Z,29.10
2022-08-26T19:05:23.490Z,29.10
2022-08-26T19:07:51.897Z,29.10
2022-08-26T19:10:19.501Z,29.00
2022-08-26T19:12:46.995Z,28.90
2022-08-26T19:15:19.374Z,28.90
2022-08-26T19:17:47.846Z,28.70
2022-08-26T19:20:15.349Z,28.60
2022-08-26T19:22:42.840Z,28.60
2022-08-26T19:25:10.590Z,28.50
2022-08-26T19:27:38.258Z,28.50
2022-08-26T19:30:07.181Z,28.40
2022-08-26T19:32:34.605Z,28.30
2022-08-26T19:35:02.186Z,28.30
2022-08-26T19:37:29.637Z,28.20
2022-08-26T19:39:57.231Z,28.20
2022-08-26T19:42:24.742Z,28.10
2022-08-26T19:45:20.199Z,28.00
2022-08-26T19:47:53.898Z,28.00
2022-08-26T19:50:22.350Z,27.90
2022-08-26T19:52:49.930Z,27.90
2022-08-26T19:55:18.732Z,27.80
2022-08-26T19:57:46.342Z,27.70
2022-08-26T20:00:18.030Z,27.70
2022-08-26T20:02:46.704Z,27.70
2022-08-26T20:05:15.898Z,27.60
2022-08-26T20:07:43.690Z,27.60
2022-08-26T20:10:15.252Z,27.50
2022-08-26T20:12:43.431Z,27.50
2022-08-26T20:15:12.948Z,27.40
2022-08-26T20:17:41.113Z,27.30
2022-08-26T20:20:33.386Z,27.30
2022-08-26T20:23:03.629Z,27.20
2022-08-26T20:25:32.755Z,27.20
2022-08-26T20:28:00.873Z,27.20
2022-08-26T20:30:28.605Z,27.10
2022-08-26T20:32:56.177Z,27.10
2022-08-26T20:35:24.022Z,27.10
2022-08-26T20:37:51.619Z,27.10
2022-08-26T20:40:19.145Z,27.10
2022-08-26T20:42:46.638Z,27.10
2022-08-26T20:45:14.165Z,27.00
2022-08-26T20:47:42.759Z,27.00
2022-08-26T20:50:10.461Z,27.00
2022-08-26T20:52:37.958Z,26.90
2022-08-26T20:55:05.930Z,26.90
2022-08-26T20:57:33.655Z,26.80
2022-08-26T21:00:01.262Z,26.80
2022-08-26T21:02:29.006Z,26.80
2022-08-26T21:04:57.601Z,26.70
2022-08-26T21:07:25.149Z,26.70
2022-08-26T21:09:52.652Z,26.70
2022-08-26T21:12:20.208Z,26.70
2022-08-26T21:14:49.621Z,26.60
2022-08-26T21:17:17.527Z,26.60
2022-08-26T21:19:45.078Z,26.60
2022-08-26T21:22:12.538Z,26.60
2022-08-26T21:24:40.150Z,26.60
2022-08-26T21:27:07.719Z,26.50
2022-08-26T21:29:36.351Z,26.60
2022-08-26T21:32:05.065Z,26.50
2022-08-26T21:34:32.652Z,26.60
2022-08-26T21:37:00.603Z,26.60
2022-08-26T21:39:28.239Z,26.60
2022-08-26T21:41:55.797Z,26.60
2022-08-26T21:44:23.282Z,26.60
2022-08-26T21:46:50.840Z,26.60
2022-08-26T21:49:18.370Z,26.60
2022-08-26T21:51:47.924Z,26.60
2022-08-26T21:54:15.661Z,26.50
2022-08-26T21:56:46.665Z,26.50
2022-08-26T21:59:17.729Z,26.50
2022-08-26T22:01:45.902Z,26.50
2022-08-26T22:04:13.457Z,26.50
2022-08-26T22:06:46.770Z,26.40
2022-08-26T22:09:16.133Z,26.30
2022-08-26T22:11:44.417Z,26.30
2022-08-26T22:14:12.328Z,26.30
2022-08-26T22:16:40.199Z,26.30
2022-08-26T22:19:08.281Z,26.30
2022-08-26T22:21:41.485Z,26.30
2022-08-26T22:24:12.132Z,26.20
2022-08-26T22:26:39.635Z,26.20
2022-08-26T22:29:07.626Z,26.20
2022-08-26T22:31:37.855Z,26.20
2022-08-26T22:34:09.010Z,26.20
2022-08-26T22:36:42.857Z,26.20
2022-08-26T22:39:13.356Z,26.10
2022-08-26T22:41:43.019Z,26.00
2022-08-26T22:44:11.871Z,26.00
2022-08-26T22:46:41.066Z,25.90
2022-08-26T22:49:10.779Z,25.80
2022-08-26T22:51:38.811Z,25.70
2022-08-26T22:54:06.933Z,25.70
2022-08-26T22:56:35.127Z,25.70
2022-08-26T22:59:03.743Z,25.80
2022-08-26T23:01:31.376Z,25.80
2022-08-26T23:03:58.856Z,25.70
2022-08-26T23:06:26.398Z,25.70
2022-08-26T23:08:54.031Z,25.70
2022-08-26T23:11:21.494Z,25.70
2022-08-26T23:13:49.043Z,25.70
2022-08-26T23:16:16.775Z,25.70
2022-08-26T23:18:44.312Z,25.80
2022-08-26T23:21:11.965Z,25.80
2022-08-26T23:23:39.621Z,25.80
2022-08-26T23:26:08.121Z,25.70
2022-08-26T23:28:36.846Z,25.70
2022-08-26T23:31:05.672Z,25.70
2022-08-26T23:33:51.619Z,25.70
2022-08-26T23:36:22.828Z,25.60
2022-08-26T23:38:52.783Z,25.50
2022-08-26T23:41:24.418Z,25.20
2022-08-26T23:43:52.883Z,25.00
2022-08-26T23:46:20.758Z,24.90
2022-08-26T23:48:48.384Z,24.70
2022-08-26T23:51:34.744Z,24.70
2022-08-26T23:54:02.279Z,24.70
2022-08-26T23:56:29.817Z,24.60
2022-08-26T23:58:57.256Z,24.60
